Time;durP1;ratioP1;P1;durP2;ratioP2;P2;SDS_P1;SDS_P2;PMS_P1;PMS_P2;Temp;Humidity;BMP_temperature;BMP_pressure;BME280_temperature;BME280_humidity;BME280_pressure;Samples;Min_cycle;Max_cycle;Signal;HPM_P1;HPM_P2
2021/06/17 00:00:33;;;;;;;9.43;6.45;;;;;;;;;;5015763;28;20115;-71
2021/06/17 00:03:00;;;;;;;10.88;5.68;;;;;;;;;;5015594;28;20046;-70
2021/06/17 00:05:28;;;;;;;14.60;6.13;;;;;;;;;;5015474;28;20022;-71
2021/06/17 00:07:55;;;;;;;9.10;6.80;;;;;;;;;;5014029;28;20033;-71
2021/06/17 00:10:22;;;;;;;12.35;6.70;;;;;;;;;;5015315;28;20026;-71
2021/06/17 00:12:48;;;;;;;9.27;6.22;;;;;;;;;;5013958;28;20030;-71
2021/06/17 00:15:14;;;;;;;11.10;6.55;;;;;;;;;;5015498;28;20032;-69
2021/06/17 00:17:42;;;;;;;12.52;7.15;;;;;;;;;;5015154;28;20026;-71
2021/06/17 00:20:09;;;;;;;14.93;6.80;;;;;;;;;;5015155;28;20033;-71
2021/06/17 00:22:35;;;;;;;8.15;6.28;;;;;;;;;;5013796;28;20025;-69
2021/06/17 00:25:01;;;;;;;12.38;6.93;;;;;;;;;;5015009;28;20021;-71
2021/06/17 00:27:27;;;;;;;9.10;6.82;;;;;;;;;;5014979;28;20485;-69
2021/06/17 00:29:54;;;;;;;11.63;6.43;;;;;;;;;;5014963;28;20026;-70
2021/06/17 00:32:21;;;;;;;10.45;6.60;;;;;;;;;;5013746;28;20029;-70
2021/06/17 00:34:47;;;;;;;13.93;5.95;;;;;;;;;;5013560;28;20448;-69
2021/06/17 00:37:13;;;;;;;9.35;6.80;;;;;;;;;;5013548;28;20044;-70
2021/06/17 00:39:40;;;;;;;13.73;7.10;;;;;;;;;;5014522;28;20058;-71
2021/06/17 00:42:07;;;;;;;12.95;7.57;;;;;;;;;;5014721;28;20096;-70
2021/06/17 00:44:34;;;;;;;10.65;6.75;;;;;;;;;;5014719;28;20026;-70
2021/06/17 00:47:00;;;;;;;9.52;6.93;;;;;;;;;;5013416;28;20129;-69
2021/06/17 00:49:27;;;;;;;13.95;7.60;;;;;;;;;;5014610;28;20421;-70
2021/06/17 00:51:53;;;;;;;10.48;7.28;;;;;;;;;;5014504;28;20159;-68
2021/06/17 00:54:32;;;;;;;14.80;7.97;;;;;;;;;;5014230;28;20504;-69
2021/06/17 00:57:03;;;;;;;10.48;7.40;;;;;;;;;;5013274;28;20070;-69
2021/06/17 00:59:30;;;;;;;12.23;7.07;;;;;;;;;;5013216;28;20386;-69
2021/06/17 01:01:56;;;;;;;10.70;7.13;;;;;;;;;;5012572;28;20341;-69
2021/06/17 01:04:29;;;;;;;11.85;7.28;;;;;;;;;;5014311;28;20029;-71
2021/06/17 01:06:56;;;;;;;14.25;8.15;;;;;;;;;;5013107;28;20037;-70
2021/06/17 01:09:28;;;;;;;9.05;6.40;;;;;;;;;;5014501;28;20105;-68
2021/06/17 01:12:03;;;;;;;16.77;7.32;;;;;;;;;;5014106;28;20570;-69
2021/06/17 01:14:33;;;;;;;12.50;7.28;;;;;;;;;;5014185;28;20070;-71
2021/06/17 01:17:04;;;;;;;10.23;6.45;;;;;;;;;;5014130;28;20033;-68
2021/06/17 01:19:30;;;;;;;10.25;7.55;;;;;;;;;;5012478;28;20160;-69
2021/06/17 01:21:59;;;;;;;12.02;6.90;;;;;;;;;;5013991;28;20021;-70
2021/06/17 01:24:44;;;;;;;13.38;6.68;;;;;;;;;;5014075;28;20025;-69
2021/06/17 01:27:36;;;;;;;8.68;6.38;;;;;;;;;;5013902;28;20109;-68
2021/06/17 01:30:10;;;;;;;9.50;6.55;;;;;;;;;;5010445;28;20033;-68
2021/06/17 01:32:37;;;;;;;13.00;7.53;;;;;;;;;;5013744;28;20052;-68
2021/06/17 01:35:04;;;;;;;15.02;7.70;;;;;;;;;;5013606;28;20124;-71
2021/06/17 01:37:31;;;;;;;13.88;7.18;;;;;;;;;;5013757;28;20026;-70
2021/06/17 01:39:58;;;;;;;11.20;7.45;;;;;;;;;;5013711;28;20026;-69
2021/06/17 01:42:25;;;;;;;17.30;8.18;;;;;;;;;;5012049;28;20041;-70
2021/06/17 01:44:58;;;;;;;13.20;7.50;;;;;;;;;;5013703;28;20101;-70
2021/06/17 01:47:26;;;;;;;14.82;7.60;;;;;;;;;;5012298;28;20413;-69
2021/06/17 01:49:52;;;;;;;11.70;7.53;;;;;;;;;;5012299;28;20112;-70
2021/06/17 01:52:20;;;;;;;13.43;8.38;;;;;;;;;;5013536;28;20030;-70
2021/06/17 01:54:48;;;;;;;9.10;7.47;;;;;;;;;;5012277;28;20038;-70
2021/06/17 01:57:15;;;;;;;14.30;8.35;;;;;;;;;;5013508;28;20104;-70
2021/06/17 01:59:43;;;;;;;14.38;7.85;;;;;;;;;;5012179;28;20041;-70
2021/06/17 02:02:10;;;;;;;10.88;8.02;;;;;;;;;;5013120;28;20196;-70
2021/06/17 02:04:36;;;;;;;10.52;6.78;;;;;;;;;;5013419;28;20100;-70
2021/06/17 02:07:03;;;;;;;13.43;6.65;;;;;;;;;;5012110;28;20081;-70
2021/06/17 02:09:30;;;;;;;15.02;7.30;;;;;;;;;;5013621;28;20022;-70
2021/06/17 02:11:57;;;;;;;9.48;6.78;;;;;;;;;;5011953;28;20030;-71
2021/06/17 02:14:25;;;;;;;9.80;7.13;;;;;;;;;;5013303;28;20104;-71
2021/06/17 02:16:52;;;;;;;13.32;7.40;;;;;;;;;;5013339;28;20014;-70
2021/06/17 02:19:20;;;;;;;9.70;7.47;;;;;;;;;;5011956;28;20026;-70
2021/06/17 02:21:49;;;;;;;11.57;7.75;;;;;;;;;;5013275;28;20026;-71
2021/06/17 02:24:15;;;;;;;12.75;7.55;;;;;;;;;;5013228;28;20454;-71
2021/06/17 02:26:42;;;;;;;10.65;7.38;;;;;;;;;;5013226;28;20126;-71
2021/06/17 02:29:11;;;;;;;12.73;8.00;;;;;;;;;;5011590;28;20061;-71
2021/06/17 02:31:39;;;;;;;11.07;7.47;;;;;;;;;;5011730;28;20561;-70
2021/06/17 02:34:06;;;;;;;11.23;7.13;;;;;;;;;;5011856;28;20120;-70
2021/06/17 02:36:32;;;;;;;12.00;7.75;;;;;;;;;;5013398;28;20030;-70
2021/06/17 02:39:01;;;;;;;11.25;7.38;;;;;;;;;;5013111;28;20026;-70
2021/06/17 02:41:28;;;;;;;14.35;7.97;;;;;;;;;;5013124;28;20022;-71
2021/06/17 02:43:57;;;;;;;19.42;8.27;;;;;;;;;;5013067;28;20109;-70
2021/06/17 02:46:24;;;;;;;12.80;7.43;;;;;;;;;;5013003;28;20018;-70
2021/06/17 02:48:51;;;;;;;13.48;7.60;;;;;;;;;;5013035;28;20478;-70
2021/06/17 02:51:17;;;;;;;10.40;7.53;;;;;;;;;;5012928;28;20056;-70
2021/06/17 02:53:44;;;;;;;15.68;7.80;;;;;;;;;;5012689;28;20041;-70
2021/06/17 02:56:31;;;;;;;13.93;7.63;;;;;;;;;;5014375;28;20611;-70
2021/06/17 02:59:00;;;;;;;14.27;8.30;;;;;;;;;;5015431;28;20521;-70
2021/06/17 03:01:33;;;;;;;18.55;8.77;;;;;;;;;;5016355;28;20145;-69
2021/06/17 03:04:04;;;;;;;15.70;8.55;;;;;;;;;;5016624;28;20057;-69
2021/06/17 03:06:34;;;;;;;17.88;9.35;;;;;;;;;;5016615;28;20026;-70
2021/06/17 03:09:02;;;;;;;13.88;8.32;;;;;;;;;;5016461;28;20022;-70
2021/06/17 03:11:32;;;;;;;15.85;7.38;;;;;;;;;;5015055;28;20116;-70
2021/06/17 03:13:59;;;;;;;18.98;8.02;;;;;;;;;;5016428;28;20089;-69
2021/06/17 03:16:30;;;;;;;11.95;8.65;;;;;;;;;;5015029;28;20492;-68
2021/06/17 03:19:00;;;;;;;18.63;8.50;;;;;;;;;;5016380;28;20097;-69
2021/06/17 03:21:32;;;;;;;15.57;8.60;;;;;;;;;;5016283;28;20032;-68
2021/06/17 03:23:59;;;;;;;21.45;9.93;;;;;;;;;;5016209;28;20101;-71
2021/06/17 03:26:26;;;;;;;17.27;9.32;;;;;;;;;;5016130;28;20105;-70
2021/06/17 03:28:53;;;;;;;18.88;9.20;;;;;;;;;;5016101;28;20028;-69
2021/06/17 03:31:20;;;;;;;18.65;8.85;;;;;;;;;;5015995;28;20052;-68
2021/06/17 03:33:47;;;;;;;23.45;9.57;;;;;;;;;;5015842;28;20149;-71
2021/06/17 03:36:14;;;;;;;16.95;9.02;;;;;;;;;;4998590;28;20058;-70
2021/06/17 03:38:42;;;;;;;16.42;9.20;;;;;;;;;;5014610;28;20080;-70
2021/06/17 03:41:09;;;;;;;14.40;9.63;;;;;;;;;;5015933;28;20034;-71
2021/06/17 03:43:36;;;;;;;15.25;10.32;;;;;;;;;;5014532;28;20029;-71
2021/06/17 03:46:03;;;;;;;15.07;9.20;;;;;;;;;;5014579;28;20022;-69
2021/06/17 03:48:30;;;;;;;16.85;9.15;;;;;;;;;;5014474;28;20038;-71
2021/06/17 03:50:58;;;;;;;13.60;9.13;;;;;;;;;;5015565;28;20058;-71
2021/06/17 03:53:24;;;;;;;13.68;8.50;;;;;;;;;;5014245;28;20034;-71
2021/06/17 03:55:53;;;;;;;14.20;8.65;;;;;;;;;;5015308;28;20371;-70
2021/06/17 03:58:22;;;;;;;14.32;9.15;;;;;;;;;;5015465;28;20033;-68
2021/06/17 04:00:48;;;;;;;15.98;8.57;;;;;;;;;;5015735;28;20109;-70
2021/06/17 04:03:15;;;;;;;15.75;8.98;;;;;;;;;;5015463;28;20579;-71
2021/06/17 04:05:42;;;;;;;13.20;8.20;;;;;;;;;;5014870;28;20394;-69
2021/06/17 04:08:11;;;;;;;19.98;9.45;;;;;;;;;;5015375;28;20465;-71
2021/06/17 04:10:39;;;;;;;12.73;7.88;;;;;;;;;;5013910;28;20614;-70
2021/06/17 04:13:06;;;;;;;18.55;8.57;;;;;;;;;;5013863;28;20030;-70
2021/06/17 04:15:32;;;;;;;15.18;9.02;;;;;;;;;;5014038;28;20054;-69
2021/06/17 04:18:00;;;;;;;17.98;9.68;;;;;;;;;;5015249;28;20475;-69
2021/06/17 04:20:34;;;;;;;13.10;9.02;;;;;;;;;;5015176;28;20482;-70
2021/06/17 04:23:01;;;;;;;13.35;8.50;;;;;;;;;;5013853;28;20118;-70
2021/06/17 04:25:28;;;;;;;21.23;8.75;;;;;;;;;;5015136;28;20026;-69
2021/06/17 04:28:02;;;;;;;12.20;8.45;;;;;;;;;;5015200;28;20097;-69
2021/06/17 04:30:29;;;;;;;13.98;9.35;;;;;;;;;;5014917;28;20057;-71
2021/06/17 04:32:56;;;;;;;13.30;8.32;;;;;;;;;;5014795;28;20367;-69
2021/06/17 04:35:23;;;;;;;15.10;9.30;;;;;;;;;;5013612;28;20812;-71
2021/06/17 04:37:51;;;;;;;14.52;8.20;;;;;;;;;;5014749;28;20022;-70
2021/06/17 04:40:18;;;;;;;16.45;8.68;;;;;;;;;;5014459;28;20021;-69
2021/06/17 04:42:44;;;;;;;16.55;8.70;;;;;;;;;;5013430;28;20033;-71
2021/06/17 04:45:11;;;;;;;15.05;8.63;;;;;;;;;;5014720;28;20101;-69
2021/06/17 04:47:38;;;;;;;19.90;8.63;;;;;;;;;;5014326;28;20566;-69
2021/06/17 04:50:06;;;;;;;15.32;8.75;;;;;;;;;;5014541;28;20033;-69
2021/06/17 04:52:36;;;;;;;14.32;8.45;;;;;;;;;;5013149;28;20386;-69
2021/06/17 04:55:03;;;;;;;15.98;9.30;;;;;;;;;;5014471;28;20025;-69
2021/06/17 04:57:29;;;;;;;14.35;9.15;;;;;;;;;;5013181;28;20029;-68
2021/06/17 04:59:56;;;;;;;20.38;9.85;;;;;;;;;;5014382;28;20072;-68
2021/06/17 05:02:22;;;;;;;16.83;8.50;;;;;;;;;;5013592;28;20509;-68
2021/06/17 05:04:48;;;;;;;18.10;8.85;;;;;;;;;;5014297;28;20041;-68
2021/06/17 05:12:26;;;;;;;12.25;8.55;;;;;;;;;;5013886;28;20060;-70
2021/06/17 05:14:53;;;;;;;12.57;7.95;;;;;;;;;;5014151;28;20533;-69
2021/06/17 05:17:19;;;;;;;9.32;7.40;;;;;;;;;;5013524;28;20037;-69
2021/06/17 05:19:45;;;;;;;12.77;7.45;;;;;;;;;;5013894;28;20105;-68
2021/06/17 05:22:12;;;;;;;12.93;7.55;;;;;;;;;;5014012;28;20113;-69
2021/06/17 05:24:39;;;;;;;14.35;7.65;;;;;;;;;;5013951;28;20080;-69
2021/06/17 05:27:08;;;;;;;12.60;7.50;;;;;;;;;;5013590;28;20410;-69
2021/06/17 05:29:35;;;;;;;13.13;7.00;;;;;;;;;;5013867;28;20030;-69
2021/06/17 05:32:01;;;;;;;9.18;6.60;;;;;;;;;;5013775;28;20492;-68
2021/06/17 05:34:28;;;;;;;8.00;5.78;;;;;;;;;;5013516;28;20109;-68
2021/06/17 05:36:54;;;;;;;9.60;5.82;;;;;;;;;;5013800;28;20025;-68
2021/06/17 05:39:20;;;;;;;9.95;5.95;;;;;;;;;;5013465;28;20389;-69
2021/06/17 05:41:46;;;;;;;15.75;6.30;;;;;;;;;;5013683;28;20036;-70
2021/06/17 05:44:12;;;;;;;12.27;6.50;;;;;;;;;;5012233;28;20033;-69
2021/06/17 05:46:41;;;;;;;12.43;6.10;;;;;;;;;;5012686;28;20022;-68
2021/06/17 05:49:08;;;;;;;11.63;5.85;;;;;;;;;;5012229;28;20065;-70
2021/06/17 05:51:34;;;;;;;9.32;5.28;;;;;;;;;;5011733;28;20076;-68
2021/06/17 05:54:01;;;;;;;11.15;6.00;;;;;;;;;;5013474;28;20044;-68
2021/06/17 05:56:28;;;;;;;9.18;5.65;;;;;;;;;;5013505;28;20022;-69
2021/06/17 05:58:55;;;;;;;8.07;5.40;;;;;;;;;;5012153;28;20057;-69
2021/06/17 06:01:21;;;;;;;7.13;5.65;;;;;;;;;;5011887;28;20143;-69
2021/06/17 06:03:48;;;;;;;7.00;5.25;;;;;;;;;;5013740;28;20076;-68
2021/06/17 06:06:14;;;;;;;9.65;6.03;;;;;;;;;;5012239;28;20117;-69
2021/06/17 06:08:41;;;;;;;7.05;4.85;;;;;;;;;;5013431;28;20030;-69
2021/06/17 06:11:07;;;;;;;11.98;5.80;;;;;;;;;;5011959;28;20109;-69
2021/06/17 06:13:33;;;;;;;9.75;4.75;;;;;;;;;;5012612;28;20543;-68
2021/06/17 06:16:00;;;;;;;9.00;4.88;;;;;;;;;;5012544;28;20097;-69
2021/06/17 06:18:26;;;;;;;9.68;5.30;;;;;;;;;;5011748;28;20045;-69
2021/06/17 06:20:57;;;;;;;10.77;5.75;;;;;;;;;;5012888;28;20026;-70
2021/06/17 06:23:24;;;;;;;9.40;5.65;;;;;;;;;;5013026;28;20065;-70
2021/06/17 06:25:50;;;;;;;8.50;5.20;;;;;;;;;;5012509;28;20018;-69
2021/06/17 06:28:18;;;;;;;8.52;5.43;;;;;;;;;;5010776;28;20048;-69
2021/06/17 06:30:44;;;;;;;12.35;5.05;;;;;;;;;;5014042;28;20466;-70
2021/06/17 06:33:10;;;;;;;8.77;4.80;;;;;;;;;;5016443;28;20030;-70
2021/06/17 06:35:37;;;;;;;8.40;5.03;;;;;;;;;;5016589;28;20026;-69
2021/06/17 06:38:06;;;;;;;8.45;5.53;;;;;;;;;;5018822;28;20417;-69
2021/06/17 06:40:32;;;;;;;8.77;4.95;;;;;;;;;;5034957;28;20028;-68
2021/06/17 06:42:58;;;;;;;10.65;5.05;;;;;;;;;;5036318;28;20381;-69
2021/06/17 06:45:25;;;;;;;6.85;4.80;;;;;;;;;;5027450;28;20022;-71
2021/06/17 06:47:51;;;;;;;12.32;5.38;;;;;;;;;;5015269;28;20022;-70
2021/06/17 06:50:18;;;;;;;6.07;4.75;;;;;;;;;;5014527;28;20018;-70
2021/06/17 06:52:45;;;;;;;6.40;4.15;;;;;;;;;;5015765;28;20034;-70
2021/06/17 06:55:13;;;;;;;9.65;4.45;;;;;;;;;;5031819;28;20112;-70
2021/06/17 06:57:39;;;;;;;9.07;3.67;;;;;;;;;;5031860;28;20021;-70
2021/06/17 07:00:09;;;;;;;16.50;6.28;;;;;;;;;;5031368;28;20026;-70
2021/06/17 07:02:35;;;;;;;5.28;3.67;;;;;;;;;;5016493;28;20064;-68
2021/06/17 07:05:02;;;;;;;7.03;4.60;;;;;;;;;;5031582;28;20028;-68
2021/06/17 07:07:28;;;;;;;9.02;4.80;;;;;;;;;;5016412;28;20052;-68
2021/06/17 07:09:55;;;;;;;7.55;4.00;;;;;;;;;;5016783;28;20108;-68
2021/06/17 07:12:21;;;;;;;7.57;4.85;;;;;;;;;;5016367;28;20038;-68
2021/06/17 07:14:48;;;;;;;7.18;4.15;;;;;;;;;;5016152;28;20116;-69
2021/06/17 07:17:14;;;;;;;8.63;4.60;;;;;;;;;;5016269;28;20041;-68
2021/06/17 07:19:41;;;;;;;10.52;5.18;;;;;;;;;;5016146;28;20018;-69
2021/06/17 07:22:08;;;;;;;6.95;4.30;;;;;;;;;;5031127;28;20026;-70
2021/06/17 07:24:34;;;;;;;8.38;4.40;;;;;;;;;;5016518;28;20105;-69
2021/06/17 07:27:02;;;;;;;5.95;4.30;;;;;;;;;;5016254;28;20022;-68
2021/06/17 07:29:29;;;;;;;6.45;4.45;;;;;;;;;;5031244;28;20022;-69
2021/06/17 07:31:55;;;;;;;8.38;5.43;;;;;;;;;;5016014;28;20034;-69
2021/06/17 07:34:22;;;;;;;9.23;4.72;;;;;;;;;;5015647;28;20445;-72
2021/06/17 07:36:48;;;;;;;14.10;5.50;;;;;;;;;;5015739;28;20561;-69
2021/06/17 07:39:15;;;;;;;4.88;4.28;;;;;;;;;;5031099;28;20084;-70
2021/06/17 07:41:41;;;;;;;9.85;5.13;;;;;;;;;;5015287;28;20037;-70
2021/06/17 07:44:09;;;;;;;8.73;4.97;;;;;;;;;;5030974;28;20076;-69
2021/06/17 07:46:36;;;;;;;7.18;4.28;;;;;;;;;;5014084;28;20025;-69
2021/06/17 07:49:02;;;;;;;9.38;4.53;;;;;;;;;;5015275;28;20018;-70
2021/06/17 07:51:29;;;;;;;8.85;4.22;;;;;;;;;;5015416;28;20026;-70
2021/06/17 07:53:59;;;;;;;7.82;4.32;;;;;;;;;;5015692;28;20057;-69
2021/06/17 07:56:26;;;;;;;5.80;3.55;;;;;;;;;;5015655;28;20112;-69
2021/06/17 07:58:52;;;;;;;4.70;3.72;;;;;;;;;;5014469;28;20129;-69
2021/06/17 08:01:18;;;;;;;10.20;4.10;;;;;;;;;;5030286;28;20129;-69
2021/06/17 08:03:44;;;;;;;5.97;3.83;;;;;;;;;;5015519;28;20041;-69
2021/06/17 08:06:11;;;;;;;9.25;4.00;;;;;;;;;;5014141;28;20322;-68
2021/06/17 08:08:37;;;;;;;10.13;4.88;;;;;;;;;;5030222;28;20026;-68
2021/06/17 08:11:03;;;;;;;4.35;3.13;;;;;;;;;;5014243;28;20484;-70
2021/06/17 08:13:29;;;;;;;6.28;4.18;;;;;;;;;;5014987;28;20083;-69
2021/06/17 08:15:56;;;;;;;10.05;4.03;;;;;;;;;;5015310;28;20104;-69
2021/06/17 08:18:22;;;;;;;26.58;5.88;;;;;;;;;;5015411;28;20021;-69
2021/06/17 08:20:50;;;;;;;10.50;3.53;;;;;;;;;;5014992;28;20112;-71
2021/06/17 08:23:19;;;;;;;11.25;4.70;;;;;;;;;;5015010;28;20367;-69
2021/06/17 08:25:45;;;;;;;11.40;4.32;;;;;;;;;;5013624;28;20076;-69
2021/06/17 08:28:12;;;;;;;8.38;4.05;;;;;;;;;;5030074;28;20428;-70
2021/06/17 08:30:38;;;;;;;3.92;3.28;;;;;;;;;;5014039;28;20105;-70
2021/06/17 08:33:04;;;;;;;10.63;3.38;;;;;;;;;;5029559;28;20026;-69
2021/06/17 08:35:31;;;;;;;4.28;3.38;;;;;;;;;;5013345;28;20029;-70
2021/06/17 08:37:57;;;;;;;12.93;5.35;;;;;;;;;;5015025;28;20032;-70
2021/06/17 08:40:25;;;;;;;7.50;3.70;;;;;;;;;;5028240;28;20073;-69
2021/06/17 08:42:51;;;;;;;22.45;4.40;;;;;;;;;;5014495;28;20061;-71
2021/06/17 08:45:17;;;;;;;9.63;3.63;;;;;;;;;;5014878;28;20113;-71
2021/06/17 08:47:45;;;;;;;17.15;4.18;;;;;;;;;;5029845;28;20061;-71
2021/06/17 08:50:12;;;;;;;9.30;2.75;;;;;;;;;;5014490;28;20474;-71
2021/06/17 08:52:40;;;;;;;27.88;4.25;;;;;;;;;;5013093;28;20029;-71
2021/06/17 08:55:13;;;;;;;5.63;2.60;;;;;;;;;;5014707;28;20029;-71
2021/06/17 08:57:39;;;;;;;5.05;2.67;;;;;;;;;;5029598;28;20089;-71
2021/06/17 09:03:10;;;;;;;8.13;2.83;;;;;;;;;;5011799;28;20046;-69
2021/06/17 09:05:38;;;;;;;4.03;2.33;;;;;;;;;;5014047;28;20030;-68
2021/06/17 09:08:05;;;;;;;75.50;7.78;;;;;;;;;;5014190;28;20489;-70
2021/06/17 09:10:32;;;;;;;12.77;3.45;;;;;;;;;;5014146;28;20025;-73
2021/06/17 09:12:59;;;;;;;7.85;2.45;;;;;;;;;;5014014;28;20119;-69
2021/06/17 09:15:31;;;;;;;68.78;8.60;;;;;;;;;;5013952;28;20022;-70
2021/06/17 09:17:57;;;;;;;;;;;;;;;;;;5014313;28;20025;-68
2021/06/17 09:20:24;;;;;;;2.75;2.30;;;;;;;;;;5014043;28;19996;-69
2021/06/17 09:22:50;;;;;;;3.95;2.63;;;;;;;;;;5013595;28;20064;-67
2021/06/17 09:25:20;;;;;;;3.22;2.17;;;;;;;;;;5013877;28;20374;-71
2021/06/17 09:27:48;;;;;;;17.50;5.45;;;;;;;;;;5013709;28;20057;-69
2021/06/17 09:30:16;;;;;;;4.28;2.20;;;;;;;;;;5013807;28;20458;-71
2021/06/17 09:32:53;;;;;;;2.65;2.17;;;;;;;;;;5013705;28;20025;-71
2021/06/17 09:35:26;;;;;;;4.65;2.88;;;;;;;;;;5013741;28;20018;-69
2021/06/17 09:38:00;;;;;;;5.18;2.78;;;;;;;;;;5013756;28;20022;-68
2021/06/17 09:40:28;;;;;;;4.10;1.98;;;;;;;;;;5012422;28;20246;-69
2021/06/17 09:43:14;;;;;;;2.45;1.95;;;;;;;;;;5013542;28;20458;-71
2021/06/17 09:45:41;;;;;;;1.90;1.80;;;;;;;;;;5013216;28;20081;-69
2021/06/17 09:48:27;;;;;;;3.25;1.63;;;;;;;;;;5013377;28;20029;-69
2021/06/17 09:50:53;;;;;;;5.15;2.40;;;;;;;;;;5012999;28;20452;-68
2021/06/17 09:53:26;;;;;;;1.95;1.73;;;;;;;;;;5013515;28;20041;-69
2021/06/17 09:55:53;;;;;;;1.75;1.60;;;;;;;;;;5012120;28;20033;-69
2021/06/17 09:58:36;;;;;;;2.45;1.80;;;;;;;;;;5013417;28;20088;-69
2021/06/17 10:01:04;;;;;;;1.58;1.48;;;;;;;;;;5013404;28;20018;-69
2021/06/17 10:03:30;;;;;;;3.78;1.98;;;;;;;;;;5011371;28;20065;-69
2021/06/17 10:05:57;;;;;;;1.90;1.80;;;;;;;;;;5013188;28;20109;-68
2021/06/17 10:08:23;;;;;;;2.08;1.85;;;;;;;;;;5011875;28;20033;-68
2021/06/17 10:10:50;;;;;;;6.15;2.05;;;;;;;;;;5011824;28;20046;-68
2021/06/17 10:13:26;;;;;;;4.35;2.00;;;;;;;;;;5013012;28;20053;-68
2021/06/17 10:15:53;;;;;;;2.72;2.40;;;;;;;;;;5013235;28;20152;-68
2021/06/17 10:18:19;;;;;;;8.00;2.10;;;;;;;;;;5011916;28;20462;-68
2021/06/17 10:20:49;;;;;;;2.88;2.38;;;;;;;;;;5011895;28;20037;-68
2021/06/17 10:23:16;;;;;;;3.40;1.98;;;;;;;;;;5011354;28;20044;-69
2021/06/17 10:25:46;;;;;;;1.75;1.50;;;;;;;;;;5013014;28;20021;-71
2021/06/17 10:28:12;;;;;;;5.38;1.85;;;;;;;;;;5013110;28;20113;-70
2021/06/17 10:30:40;;;;;;;2.90;1.92;;;;;;;;;;5013118;28;20026;-71
2021/06/17 10:33:07;;;;;;;4.88;1.73;;;;;;;;;;5011752;28;20061;-72
2021/06/17 10:35:34;;;;;;;2.25;2.05;;;;;;;;;;5012804;28;20025;-70
2021/06/17 10:38:06;;;;;;;2.38;2.17;;;;;;;;;;5013141;28;20065;-71
2021/06/17 10:40:35;;;;;;;2.95;1.90;;;;;;;;;;5026038;28;20032;-71
2021/06/17 10:43:17;;;;;;;6.60;2.08;;;;;;;;;;5032696;28;20018;-71
2021/06/17 10:45:45;;;;;;;22.42;3.25;;;;;;;;;;5032641;28;20041;-70
2021/06/17 10:48:13;;;;;;;2.13;1.90;;;;;;;;;;5032379;28;20481;-71
2021/06/17 10:50:39;;;;;;;2.03;1.85;;;;;;;;;;5032223;28;20405;-71
2021/06/17 10:53:14;;;;;;;4.60;1.67;;;;;;;;;;5032164;28;20462;-70
2021/06/17 10:55:59;;;;;;;2.97;1.60;;;;;;;;;;5032615;28;20072;-69
2021/06/17 10:58:43;;;;;;;1.90;1.60;;;;;;;;;;5047852;28;20111;-70
2021/06/17 11:01:28;;;;;;;3.58;1.73;;;;;;;;;;5032606;28;20032;-70
2021/06/17 11:04:08;;;;;;;1.88;1.73;;;;;;;;;;5032545;28;20502;-70
2021/06/17 11:06:52;;;;;;;2.15;1.73;;;;;;;;;;5047829;28;20030;-70
2021/06/17 11:09:37;;;;;;;1.83;1.70;;;;;;;;;;5047905;28;20025;-69
2021/06/17 11:12:27;;;;;;;1.98;1.65;;;;;;;;;;5032442;28;20457;-71
2021/06/17 11:14:56;;;;;;;2.53;2.08;;;;;;;;;;5032453;28;20029;-69
2021/06/17 11:17:33;;;;;;;5.30;2.35;;;;;;;;;;5035341;28;20108;-69
2021/06/17 11:20:12;;;;;;;4.13;1.70;;;;;;;;;;5051352;28;20025;-69
2021/06/17 11:22:45;;;;;;;4.55;1.60;;;;;;;;;;5035820;28;20137;-69
2021/06/17 11:25:17;;;;;;;2.38;1.65;;;;;;;;;;5035837;28;20025;-68
2021/06/17 11:28:03;;;;;;;3.75;1.83;;;;;;;;;;5035989;28;20052;-69
2021/06/17 11:30:38;;;;;;;2.20;1.60;;;;;;;;;;5035919;28;20097;-69
2021/06/17 11:33:27;;;;;;;5.13;1.63;;;;;;;;;;5035633;28;20026;-69
2021/06/17 11:35:58;;;;;;;2.05;1.85;;;;;;;;;;5028615;28;20040;-70
2021/06/17 11:38:26;;;;;;;1.60;1.50;;;;;;;;;;5032429;28;20021;-70
2021/06/17 11:40:53;;;;;;;3.92;1.77;;;;;;;;;;5012912;28;20034;-70
2021/06/17 11:43:23;;;;;;;1.80;1.50;;;;;;;;;;5014860;28;20495;-70
2021/06/17 11:45:49;;;;;;;2.45;2.20;;;;;;;;;;5030965;28;20029;-71
2021/06/17 11:48:15;;;;;;;2.17;1.90;;;;;;;;;;5030871;28;20080;-71
2021/06/17 11:50:46;;;;;;;3.08;1.60;;;;;;;;;;5031031;28;20125;-70
2021/06/17 11:53:16;;;;;;;1.73;1.52;;;;;;;;;;5015686;28;20061;-73
2021/06/17 11:55:49;;;;;;;3.05;1.60;;;;;;;;;;5030793;28;20030;-71
2021/06/17 11:58:16;;;;;;;2.63;1.50;;;;;;;;;;5030632;28;20159;-71
2021/06/17 12:00:42;;;;;;;2.45;1.60;;;;;;;;;;5039562;28;20033;-72
2021/06/17 12:03:19;;;;;;;1.67;1.50;;;;;;;;;;5050033;28;20088;-71
2021/06/17 12:05:46;;;;;;;6.13;1.77;;;;;;;;;;5033974;28;20048;-71
2021/06/17 12:08:12;;;;;;;3.85;1.52;;;;;;;;;;5050047;28;20373;-69
2021/06/17 12:10:41;;;;;;;5.97;1.92;;;;;;;;;;5050137;28;20109;-69
2021/06/17 12:13:09;;;;;;;3.85;1.75;;;;;;;;;;5034564;28;20120;-66
2021/06/17 12:15:36;;;;;;;1.63;1.52;;;;;;;;;;5034483;28;20466;-69
2021/06/17 12:18:12;;;;;;;2.55;1.33;;;;;;;;;;5031915;28;20032;-69
2021/06/17 12:20:41;;;;;;;1.30;1.20;;;;;;;;;;5014888;28;20111;-69
2021/06/17 12:23:07;;;;;;;2.95;1.70;;;;;;;;;;5015031;28;20459;-69
2021/06/17 12:25:38;;;;;;;12.07;1.40;;;;;;;;;;5014820;28;20025;-69
2021/06/17 12:28:06;;;;;;;1.80;1.70;;;;;;;;;;5014736;28;20026;-69
2021/06/17 12:30:46;;;;;;;1.70;1.40;;;;;;;;;;5013626;28;20029;-69
2021/06/17 12:33:15;;;;;;;4.60;1.92;;;;;;;;;;4994827;28;20026;-69
2021/06/17 12:35:50;;;;;;;2.28;1.50;;;;;;;;;;5004856;28;20029;-69
2021/06/17 12:38:35;;;;;;;2.63;1.30;;;;;;;;;;5013530;28;20025;-70
2021/06/17 12:41:20;;;;;;;6.65;2.10;;;;;;;;;;5013627;28;20057;-70
2021/06/17 12:43:46;;;;;;;1.70;1.60;;;;;;;;;;5032216;28;20541;-70
2021/06/17 12:46:13;;;;;;;1.70;1.60;;;;;;;;;;5033211;28;20040;-69
2021/06/17 13:00:59;;;;;;;4.78;1.60;;;43.70;52.20;;;;;;5181113;22;20064;-68
2021/06/17 13:03:26;;;;;;;2.83;1.45;;;45.30;45.20;;;;;;5020104;28;20417;-69
2021/06/17 13:05:54;;;;;;;2.78;1.63;;;45.20;42.20;;;;;;5012309;28;20044;-71
2021/06/17 13:08:22;;;;;;;2.05;1.58;;;45.00;41.90;;;;;;5012832;28;20049;-71
2021/06/17 13:10:52;;;;;;;1.63;1.42;;;44.70;41.40;;;;;;5013521;28;20037;-72
2021/06/17 13:13:26;;;;;;;4.13;1.80;;;44.30;44.70;;;;;;5014269;28;20034;-72
2021/06/17 13:15:55;;;;;;;1.35;1.33;;;44.20;40.60;;;;;;5014247;28;20038;-72
2021/06/17 13:18:22;;;;;;;2.58;1.50;;;;;;;;;;5013534;28;20033;-71
2021/06/17 13:20:54;;;;;;;3.22;1.58;;;43.90;46.50;;;;;;5013678;28;20026;-71
2021/06/17 13:23:31;;;;;;;2.00;1.30;;;43.90;42.60;;;;;;5011773;28;20044;-72
2021/06/17 13:26:03;;;;;;;2.35;1.30;;;45.00;40.40;;;;;;5012682;28;20036;-72
2021/06/17 13:28:29;;;;;;;2.67;1.40;;;;;;;;;;5014070;28;20034;-70
2021/06/17 13:30:57;;;;;;;2.85;1.38;;;45.50;40.40;;;;;;5012670;28;20026;-71
2021/06/17 13:33:23;;;;;;;1.10;1.10;;;;;;;;;;5013536;28;20113;-72
2021/06/17 13:35:49;;;;;;;1.83;1.30;;;45.30;80.50;;;;;;5013843;28;20026;-70
2021/06/17 13:38:18;;;;;;;2.10;1.38;;;45.30;40.20;;;;;;5011933;28;20033;-71
2021/06/17 13:40:46;;;;;;;1.35;1.25;;;45.20;39.90;;;;;;5012335;28;20145;-70
2021/06/17 13:43:13;;;;;;;4.38;1.60;;;43.70;41.00;;;;;;5013643;28;20037;-71
2021/06/17 13:45:39;;;;;;;1.73;1.40;;;43.70;40.50;;;;;;5013726;28;20026;-69
2021/06/17 13:48:06;;;;;;;1.63;1.52;;;;;;;;;;5013159;28;20022;-71
2021/06/17 13:50:32;;;;;;;3.55;1.27;;;43.10;39.90;;;;;;5013602;28;20076;-69
2021/06/17 13:52:58;;;;;;;1.40;1.30;;;;;;;;;;5013129;28;20033;-67
2021/06/17 13:55:24;;;;;;;1.23;1.23;;;43.80;38.80;;;;;;5045070;28;20026;-68
2021/06/17 13:57:56;;;;;;;2.15;1.50;;;44.30;40.30;;;;;;5013506;28;20029;-70
2021/06/17 14:00:24;;;;;;;3.60;1.38;;;44.90;39.70;;;;;;5013176;28;20045;-69
2021/06/17 14:02:50;;;;;;;3.92;1.65;;;45.90;40.20;;;;;;5013302;28;20110;-68
2021/06/17 14:05:17;;;;;;;1.25;1.15;;;45.20;61.20;;;;;;5013475;28;20053;-71
2021/06/17 14:07:45;;;;;;;1.10;0.98;;;46.90;37.50;;;;;;5013333;28;20117;-68
2021/06/17 14:10:16;;;;;;;1.77;1.13;;;47.40;37.30;;;;;;5011096;28;20029;-70
2021/06/17 14:12:43;;;;;;;1.20;1.10;;;;;;;;;;5012266;28;20034;-70
2021/06/17 14:15:11;;;;;;;1.73;1.10;;;47.70;55.10;;;;;;5012525;28;20076;-70
2021/06/17 14:17:37;;;;;;;2.60;1.33;;;47.80;38.70;;;;;;5013100;28;20449;-67
2021/06/17 14:20:06;;;;;;;1.13;1.05;;;48.20;37.90;;;;;;5011536;28;20022;-66
2021/06/17 14:22:33;;;;;;;1.17;1.10;;;;;;;;;;5012860;28;20022;-68
2021/06/17 14:24:59;;;;;;;1.40;1.13;;;47.00;36.50;;;;;;5013253;28;20030;-67
2021/06/17 14:27:25;;;;;;;1.75;1.55;;;46.40;37.00;;;;;;5013191;28;20041;-69
2021/06/17 14:29:51;;;;;;;1.30;1.20;;;45.40;36.90;;;;;;5012878;28;20509;-67
2021/06/17 14:32:18;;;;;;;1.20;1.20;;;44.90;38.20;;;;;;5012623;28;20030;-67
2021/06/17 14:34:45;;;;;;;3.35;1.25;;;45.20;37.90;;;;;;5011898;28;20394;-68
2021/06/17 14:37:11;;;;;;;1.30;1.30;;;45.20;38.40;;;;;;5011875;28;20087;-67
2021/06/17 14:39:38;;;;;;;1.88;1.17;;;45.80;38.60;;;;;;5013202;28;20026;-68
2021/06/17 14:42:04;;;;;;;2.15;1.17;;;46.40;46.70;;;;;;5013024;28;20026;-68
2021/06/17 14:44:31;;;;;;;3.03;1.30;;;46.40;48.60;;;;;;5012788;28;20367;-68
2021/06/17 14:46:57;;;;;;;1.42;1.30;;;46.50;38.70;;;;;;5013051;28;20022;-67
2021/06/17 14:49:23;;;;;;;1.60;1.50;;;47.20;38.20;;;;;;5012733;28;20113;-68
2021/06/17 14:51:49;;;;;;;1.45;1.35;;;47.40;37.40;;;;;;5015158;28;20120;-68